ブエノスアイレス/エセイサ の空港の天気 - METARとTAF

エセイサ国際空港 ( SAEZ / EZE ) - アルゼンチン ブエノスアイレス州、Ezeiza
飛行場実況気象(Metar)
観測時間05/25 22:39 -03 (05/26 01:39 UTC)
風向・風速西 2m/s
視程400m
天気現象散在した霧 もや
なし
気温12℃
湿度100%
気圧1012hPa
METARSAEZ 260139Z 27003KT 0400 R11/P2000N BCFG BR NSC 12/12 Q1012
過去の天気等 Google飛行場航空写真 Wunderground天気予報

過去48時間のMETAR

飛行場予報(TAF)
発表時間: 5/25 20:00 -03 (5/25 23:00 UTC)
予報対象時間: 25日21時 -03 ~ 26日21時 -03
風向・風速南西 3m/s
視程5,000m
天気現象もや
なし
26日0時 -03 ~ 26日2時 -03 に徐々に
視程1,500m
天気現象もや
全天の4割程度の雲 雲底高度 300m
26日3時 -03 ~ 26日7時 -03 に 確率 30% で一時的に
視程800m
天気現象散在した霧
全天の4割程度の雲 雲底高度 150m
26日8時 -03 ~ 26日10時 -03 に徐々に
風向・風速南南西 5m/s
視程10km以上
全天の4割程度の雲 雲底高度 610m
26日18時 -03 ~ 26日20時 -03 に徐々に
風向・風速南南東 4m/s
視程10km以上
なし
TAF SAEZ 252300Z 2600/2624 22005KT 5000 BR NSC TX16/2618Z TN09/2609Z
BECMG 2603/2605 1500 BR SCT010
PROB30 TEMPO 2606/2610 0800 BCFG SCT005
BECMG 2611/2613 21010KT 9999 SCT020
BECMG 2621/2623 16008KT CAVOK